createdAt,value
2023-03-11T00:04:38.025Z,100.00
2023-03-11T00:09:39.558Z,100.00
2023-03-11T00:14:40.984Z,100.00
2023-03-11T00:19:42.443Z,100.00
2023-03-11T00:24:43.895Z,100.00
2023-03-11T00:29:45.315Z,100.00
2023-03-11T00:34:46.747Z,100.00
2023-03-11T00:39:48.275Z,100.00
2023-03-11T00:44:49.838Z,100.00
2023-03-11T00:49:51.273Z,100.00
2023-03-11T00:54:52.783Z,100.00
2023-03-11T00:59:55.108Z,100.00
2023-03-11T01:04:56.723Z,100.00
2023-03-11T01:09:58.313Z,100.00
2023-03-11T01:15:00.002Z,100.00
2023-03-11T01:20:01.903Z,100.00
2023-03-11T01:25:04.044Z,100.00
2023-03-11T01:30:06.402Z,100.00
2023-03-11T01:35:08.256Z,100.00
2023-03-11T01:40:18.760Z,100.00
2023-03-11T01:45:36.258Z,100.00
2023-03-11T01:50:46.394Z,100.00
2023-03-11T01:55:49.233Z,100.00
2023-03-11T02:00:51.131Z,100.00
2023-03-11T02:05:55.896Z,100.00
2023-03-11T02:10:57.716Z,100.00
2023-03-11T02:16:00.547Z,100.00
2023-03-11T02:21:28.740Z,100.00
2023-03-11T02:26:42.974Z,100.00
2023-03-11T02:31:46.048Z,100.00
2023-03-11T02:36:48.040Z,100.00
2023-03-11T02:41:50.426Z,100.00
2023-03-11T02:46:53.296Z,100.00
2023-03-11T02:51:56.114Z,100.00
2023-03-11T02:56:57.895Z,100.00
2023-03-11T03:02:01.517Z,100.00
2023-03-11T03:07:03.978Z,100.00
2023-03-11T03:12:06.348Z,100.00
2023-03-11T03:17:08.954Z,100.00
2023-03-11T03:22:10.557Z,100.00
2023-03-11T03:27:12.113Z,100.00
2023-03-11T03:32:15.330Z,100.00
2023-03-11T03:37:17.211Z,100.00
2023-03-11T03:42:19.380Z,100.00
2023-03-11T03:47:21.035Z,100.00
2023-03-11T03:52:22.813Z,100.00
2023-03-11T03:57:24.477Z,100.00
2023-03-11T04:02:26.229Z,100.00
2023-03-11T04:07:28.772Z,100.00
2023-03-11T04:12:30.548Z,100.00
2023-03-11T04:17:32.312Z,100.00
2023-03-11T04:22:34.406Z,100.00
2023-03-11T04:27:38.298Z,100.00
2023-03-11T04:32:40.556Z,100.00
2023-03-11T04:37:42.171Z,100.00
2023-03-11T04:42:43.915Z,100.00
2023-03-11T04:47:49.803Z,100.00
2023-03-11T04:52:51.878Z,100.00
2023-03-11T04:57:53.573Z,100.00
2023-03-11T05:02:55.228Z,100.00
2023-03-11T05:07:56.966Z,100.00
2023-03-11T05:12:59.358Z,100.00
2023-03-11T05:18:06.396Z,100.00
2023-03-11T05:23:09.972Z,100.00
2023-03-11T05:28:12.333Z,100.00
2023-03-11T05:33:19.648Z,100.00
2023-03-11T05:38:21.616Z,100.00
2023-03-11T05:43:23.372Z,100.00
2023-03-11T05:48:28.936Z,100.00
2023-03-11T05:53:30.540Z,100.00
2023-03-11T05:58:32.507Z,100.00
2023-03-11T06:03:34.015Z,100.00
2023-03-11T06:08:35.821Z,100.00
2023-03-11T06:13:38.450Z,100.00
2023-03-11T06:18:39.986Z,100.00
2023-03-11T06:23:41.590Z,100.00
2023-03-11T06:28:43.950Z,100.00
2023-03-11T06:33:46.836Z,100.00
2023-03-11T06:38:50.909Z,100.00
2023-03-11T06:43:52.498Z,100.00
2023-03-11T06:48:54.505Z,100.00
2023-03-11T06:53:58.269Z,100.00
2023-03-11T06:59:01.222Z,100.00
2023-03-11T07:04:06.124Z,100.00
2023-03-11T07:09:09.480Z,100.00
2023-03-11T07:14:17.018Z,100.00
2023-03-11T07:19:22.511Z,100.00
2023-03-11T07:24:23.961Z,100.00
2023-03-11T07:29:26.491Z,100.00
2023-03-11T07:34:27.980Z,100.00
2023-03-11T07:39:29.486Z,100.00
2023-03-11T07:44:30.944Z,100.00
2023-03-11T07:49:32.635Z,100.00
2023-03-11T07:54:34.103Z,100.00
2023-03-11T07:59:35.820Z,100.00
2023-03-11T08:04:39.680Z,100.00
2023-03-11T08:09:41.166Z,100.00
2023-03-11T08:14:43.725Z,100.00
2023-03-11T08:19:45.131Z,100.00
2023-03-11T08:24:51.052Z,100.00
2023-03-11T08:29:52.569Z,100.00
2023-03-11T08:34:54.335Z,100.00
2023-03-11T08:39:55.812Z,100.00
2023-03-11T08:44:57.336Z,100.00
2023-03-11T08:49:58.807Z,100.00
2023-03-11T08:55:00.283Z,88.84
2023-03-11T09:05:03.841Z,0.00
2023-03-11T09:10:06.808Z,100.00
2023-03-11T09:15:09.936Z,100.00
2023-03-11T09:20:13.615Z,88.84
2023-03-11T09:25:15.457Z,100.00
2023-03-11T09:30:17.242Z,100.00
2023-03-11T09:35:18.940Z,100.00
2023-03-11T09:45:28.128Z,100.00
2023-03-11T09:50:53.568Z,100.00
2023-03-11T09:56:06.648Z,100.00
2023-03-11T10:01:26.277Z,57.98
2023-03-11T10:06:30.547Z,60.06
2023-03-11T10:12:10.888Z,54.88
2023-03-11T10:17:36.605Z,55.30
2023-03-11T10:23:18.734Z,52.32
2023-03-11T10:28:24.001Z,54.52
2023-03-11T10:33:38.626Z,55.03
2023-03-11T10:38:47.526Z,54.53
2023-03-11T10:44:03.930Z,51.85
2023-03-11T10:49:13.119Z,53.51
2023-03-11T10:54:26.675Z,53.09
2023-03-11T10:59:35.062Z,54.12
2023-03-11T11:04:40.330Z,53.11
2023-03-11T11:09:41.832Z,51.42
2023-03-11T11:14:45.771Z,55.69
2023-03-11T11:19:49.185Z,53.48
2023-03-11T11:24:53.414Z,53.83
2023-03-11T11:30:17.916Z,51.95
2023-03-11T11:35:21.677Z,51.65
2023-03-11T11:40:33.532Z,52.56
2023-03-11T11:45:40.861Z,51.60
2023-03-11T11:50:48.266Z,50.92
2023-03-11T11:55:52.619Z,51.16
2023-03-11T12:01:23.149Z,53.79
2023-03-11T12:06:39.512Z,49.83
2023-03-11T12:12:16.701Z,49.95
2023-03-11T12:17:21.259Z,51.67
2023-03-11T12:23:00.317Z,49.77
2023-03-11T12:28:18.499Z,48.51
2023-03-11T12:33:33.086Z,47.86
2023-03-11T12:38:38.734Z,50.29
2023-03-11T12:43:40.106Z,50.36
2023-03-11T12:48:49.738Z,48.08
2023-03-11T12:53:51.246Z,49.05
2023-03-11T12:59:24.262Z,50.46
2023-03-11T13:04:39.672Z,48.89
2023-03-11T13:09:41.208Z,50.43
2023-03-11T13:14:42.932Z,50.95
2023-03-11T13:19:50.006Z,50.67
2023-03-11T13:24:51.570Z,50.98
2023-03-11T13:30:20.563Z,48.40
2023-03-11T13:35:43.772Z,48.17
2023-03-11T13:40:47.146Z,49.53
2023-03-11T13:45:54.826Z,48.39
2023-03-11T13:51:13.724Z,49.20
2023-03-11T13:56:25.785Z,47.58
2023-03-11T14:01:27.278Z,47.94
2023-03-11T14:06:30.654Z,48.45
2023-03-11T14:11:32.116Z,47.65
2023-03-11T14:16:43.698Z,47.68
2023-03-11T14:21:46.889Z,48.57
2023-03-11T14:26:49.906Z,46.96
2023-03-11T14:31:51.593Z,49.65
2023-03-11T14:36:58.801Z,49.22
2023-03-11T14:42:12.179Z,46.97
2023-03-11T14:47:32.481Z,47.70
2023-03-11T14:52:41.965Z,47.73
2023-03-11T14:57:47.325Z,47.37
2023-03-11T15:03:13.861Z,48.63
2023-03-11T15:08:19.719Z,46.55
2023-03-11T15:13:24.154Z,49.28
2023-03-11T15:18:33.217Z,47.38
2023-03-11T15:23:36.094Z,47.13
2023-03-11T15:28:38.877Z,59.37
2023-03-11T15:33:41.046Z,46.44
2023-03-11T15:38:42.526Z,45.65
2023-03-11T15:43:47.490Z,46.72
2023-03-11T15:48:49.199Z,45.71
2023-03-11T15:53:50.652Z,47.25
2023-03-11T15:58:52.075Z,46.67
2023-03-11T16:03:53.627Z,47.60
2023-03-11T16:08:55.211Z,46.95
2023-03-11T16:13:56.614Z,48.04
2023-03-11T16:18:58.145Z,47.41
2023-03-11T16:24:00.369Z,46.16
2023-03-11T16:29:16.598Z,47.83
2023-03-11T16:34:20.660Z,47.48
2023-03-11T16:39:22.190Z,48.28
2023-03-11T16:44:23.831Z,47.29
2023-03-11T16:49:25.489Z,47.75
2023-03-11T16:54:26.924Z,46.97
2023-03-11T16:59:28.567Z,48.84
2023-03-11T17:04:30.217Z,49.40
2023-03-11T17:09:32.776Z,49.69
2023-03-11T17:14:35.715Z,48.88
2023-03-11T17:19:37.254Z,49.61
2023-03-11T17:24:38.718Z,50.78
2023-03-11T17:29:40.162Z,51.58
2023-03-11T17:34:41.624Z,51.94
2023-03-11T17:39:43.259Z,53.70
2023-03-11T17:44:51.383Z,53.41
2023-03-11T17:49:54.209Z,54.94
2023-03-11T17:54:56.518Z,55.13
2023-03-11T18:00:05.400Z,56.79
2023-03-11T18:05:07.587Z,58.28
2023-03-11T18:10:10.677Z,58.66
2023-03-11T18:15:18.711Z,59.74
2023-03-11T18:20:20.309Z,60.17
2023-03-11T18:25:21.739Z,60.66
2023-03-11T18:30:23.466Z,64.76
2023-03-11T18:35:24.876Z,64.42
2023-03-11T18:40:27.786Z,66.33
2023-03-11T18:45:29.244Z,66.95
2023-03-11T18:50:30.799Z,70.01
2023-03-11T18:55:35.165Z,71.88
2023-03-11T19:00:36.602Z,71.20
2023-03-11T19:05:38.330Z,69.99
2023-03-11T19:10:40.871Z,71.42
2023-03-11T19:15:42.320Z,71.59
2023-03-11T19:20:43.825Z,69.87
2023-03-11T19:26:00.625Z,68.33
2023-03-11T19:31:05.197Z,68.33
2023-03-11T19:41:13.336Z,68.33
2023-03-11T19:46:18.534Z,68.33
2023-03-11T19:51:20.028Z,68.33
2023-03-11T19:56:21.583Z,100.00
2023-03-11T20:06:26.605Z,52.76
2023-03-11T20:11:28.200Z,100.00
2023-03-11T20:21:31.172Z,52.76
2023-03-11T20:26:33.132Z,100.00
2023-03-11T20:31:36.263Z,100.00
2023-03-11T20:41:41.045Z,100.00
2023-03-11T20:46:42.583Z,0.00
2023-03-11T20:51:47.950Z,0.00
2023-03-11T20:56:50.634Z,100.00
2023-03-11T21:01:52.285Z,100.00
2023-03-11T21:06:55.301Z,100.00
2023-03-11T21:11:56.971Z,100.00
2023-03-11T21:16:58.607Z,100.00
2023-03-11T21:22:00.263Z,100.00
2023-03-11T21:27:01.925Z,100.00
2023-03-11T21:32:03.645Z,100.00
2023-03-11T21:37:05.122Z,100.00
2023-03-11T21:42:06.746Z,100.00
2023-03-11T21:47:08.881Z,100.00
2023-03-11T21:52:10.432Z,0.00
2023-03-11T21:57:11.921Z,100.00
2023-03-11T22:02:15.581Z,100.00
2023-03-11T22:07:17.190Z,100.00
2023-03-11T22:12:18.772Z,100.00
2023-03-11T22:17:20.361Z,100.00
2023-03-11T22:22:21.852Z,100.00
2023-03-11T22:27:23.319Z,100.00
2023-03-11T22:32:24.856Z,100.00
2023-03-11T22:37:27.283Z,100.00
2023-03-11T22:42:28.797Z,100.00
2023-03-11T22:47:30.249Z,100.00
2023-03-11T22:52:31.736Z,100.00
2023-03-11T22:57:38.514Z,100.00
2023-03-11T23:02:39.956Z,100.00
2023-03-11T23:07:42.037Z,100.00
2023-03-11T23:12:43.924Z,100.00
2023-03-11T23:17:45.595Z,100.00
2023-03-11T23:22:47.132Z,100.00
2023-03-11T23:27:48.611Z,100.00
2023-03-11T23:32:50.113Z,100.00
2023-03-11T23:37:51.606Z,100.00
2023-03-11T23:42:53.025Z,100.00
2023-03-11T23:47:54.913Z,100.00
2023-03-11T23:52:56.422Z,100.00
2023-03-11T23:57:57.847Z,100.00
